createdAt,value
2018-12-15T00:00:42.092Z,24.00
2018-12-15T00:03:12.917Z,23.20
2018-12-15T00:05:42.673Z,22.87
2018-12-15T00:08:12.718Z,26.47
2018-12-15T00:10:43.519Z,23.30
2018-12-15T00:13:13.037Z,23.43
2018-12-15T00:15:45.866Z,23.87
2018-12-15T00:18:15.174Z,24.37
2018-12-15T00:20:43.776Z,24.70
2018-12-15T00:23:12.794Z,25.40
2018-12-15T00:25:42.842Z,25.30
2018-12-15T00:28:13.773Z,23.80
2018-12-15T00:30:42.410Z,24.77
2018-12-15T00:33:12.296Z,23.30
2018-12-15T00:35:40.843Z,23.80
2018-12-15T00:38:09.236Z,25.97
2018-12-15T00:40:37.729Z,23.97
2018-12-15T00:43:06.498Z,23.83
2018-12-15T00:45:36.083Z,23.70
2018-12-15T00:48:04.477Z,24.00
2018-12-15T00:50:33.103Z,25.90
2018-12-15T00:53:02.533Z,22.93
2018-12-15T00:55:32.861Z,21.43
2018-12-15T00:58:01.513Z,22.40
2018-12-15T01:00:30.273Z,23.00
2018-12-15T01:02:58.563Z,23.27
2018-12-15T01:05:28.073Z,24.60
2018-12-15T01:07:56.528Z,22.60
2018-12-15T01:10:25.627Z,22.93
2018-12-15T01:12:54.358Z,23.97
2018-12-15T01:15:28.572Z,24.00
2018-12-15T01:17:57.801Z,24.57
2018-12-15T01:20:27.155Z,23.67
2018-12-15T01:22:55.558Z,23.50
2018-12-15T01:25:24.381Z,22.50
2018-12-15T01:27:52.873Z,22.53
2018-12-15T01:30:21.349Z,23.97
2018-12-15T01:32:49.897Z,23.87
2018-12-15T01:35:18.817Z,21.27
2018-12-15T01:37:47.349Z,22.87
2018-12-15T01:40:15.939Z,22.73
2018-12-15T01:42:44.550Z,24.20
2018-12-15T01:45:13.934Z,23.40
2018-12-15T01:47:42.416Z,23.00
2018-12-15T01:50:10.956Z,23.67
2018-12-15T01:52:39.526Z,23.00
2018-12-15T01:55:09.150Z,22.60
2018-12-15T01:57:37.734Z,22.70
2018-12-15T02:00:07.836Z,22.20
2018-12-15T02:02:36.478Z,22.67
2018-12-15T02:05:05.491Z,23.20
2018-12-15T02:07:33.981Z,23.47
2018-12-15T02:10:02.405Z,24.37
2018-12-15T02:12:31.495Z,23.10
2018-12-15T02:15:00.002Z,23.67
2018-12-15T02:17:33.652Z,23.97
2018-12-15T02:19:59.052Z,22.63
2018-12-15T02:22:28.208Z,22.60
2018-12-15T02:24:56.683Z,22.83
2018-12-15T02:27:25.952Z,23.77
2018-12-15T02:29:55.339Z,23.10
2018-12-15T02:32:23.842Z,23.60
2018-12-15T02:34:53.044Z,23.37
2018-12-15T02:37:21.705Z,23.90
2018-12-15T02:39:51.096Z,24.27
2018-12-15T02:42:20.119Z,22.90
2018-12-15T02:44:48.537Z,22.87
2018-12-15T02:47:17.026Z,24.37
2018-12-15T02:49:45.714Z,23.83
2018-12-15T02:52:14.126Z,21.63
2018-12-15T02:54:42.591Z,23.70
2018-12-15T02:57:11.133Z,23.67
2018-12-15T02:59:40.502Z,22.83
2018-12-15T03:02:08.891Z,24.20
2018-12-15T03:04:37.345Z,24.50
2018-12-15T03:07:05.965Z,24.03
2018-12-15T03:09:34.439Z,23.93
2018-12-15T03:12:02.988Z,23.70
2018-12-15T03:14:31.671Z,22.90
2018-12-15T03:17:07.552Z,21.40
2018-12-15T03:19:36.986Z,22.80
2018-12-15T03:22:05.866Z,22.50
2018-12-15T03:24:35.398Z,23.10
2018-12-15T03:27:04.049Z,21.03
2018-12-15T03:29:33.258Z,24.13
2018-12-15T03:32:02.262Z,25.20
2018-12-15T03:34:31.924Z,23.57
2018-12-15T03:37:01.627Z,23.27
2018-12-15T03:39:30.560Z,24.70
2018-12-15T03:41:59.801Z,25.53
2018-12-15T03:44:28.690Z,23.90
2018-12-15T03:46:58.377Z,22.90
2018-12-15T03:49:27.614Z,25.70
2018-12-15T03:51:56.364Z,23.60
2018-12-15T03:54:25.210Z,23.03
2018-12-15T03:56:55.273Z,23.43
2018-12-15T03:59:24.617Z,23.57
2018-12-15T04:01:53.569Z,24.90
2018-12-15T04:04:23.229Z,24.17
2018-12-15T04:06:51.878Z,24.50
2018-12-15T04:09:20.337Z,23.20
2018-12-15T04:11:49.159Z,24.60
2018-12-15T04:14:18.206Z,23.03
2018-12-15T04:16:47.550Z,23.57
2018-12-15T04:19:16.475Z,25.30
2018-12-15T04:21:46.267Z,24.70
2018-12-15T04:24:18.247Z,23.43
2018-12-15T04:26:48.135Z,22.53
2018-12-15T04:29:20.567Z,22.83
2018-12-15T04:31:49.375Z,23.00
2018-12-15T04:34:18.236Z,24.23
2018-12-15T04:36:47.160Z,24.30
2018-12-15T04:39:17.937Z,23.80
2018-12-15T04:41:46.847Z,22.53
2018-12-15T04:44:16.128Z,23.30
2018-12-15T04:46:47.065Z,23.70
2018-12-15T04:49:15.820Z,24.00
2018-12-15T04:51:44.550Z,22.77
2018-12-15T04:54:13.930Z,23.43
2018-12-15T04:56:44.855Z,24.73
2018-12-15T04:59:13.358Z,24.33
2018-12-15T05:01:41.774Z,25.07
2018-12-15T05:04:11.524Z,24.87
2018-12-15T05:06:41.281Z,24.20
2018-12-15T05:09:09.657Z,23.50
2018-12-15T05:11:38.255Z,24.73
2018-12-15T05:14:06.672Z,23.90
2018-12-15T05:16:35.174Z,25.33
2018-12-15T05:19:03.756Z,24.97
2018-12-15T05:21:32.130Z,24.97
2018-12-15T05:24:00.688Z,23.27
2018-12-15T05:26:29.202Z,26.03
2018-12-15T05:28:57.761Z,25.63
2018-12-15T05:31:27.023Z,25.20
2018-12-15T05:33:56.134Z,24.93
2018-12-15T05:36:24.753Z,23.40
2018-12-15T05:38:53.179Z,23.60
2018-12-15T05:41:25.931Z,23.80
2018-12-15T05:43:55.050Z,23.97
2018-12-15T05:46:23.448Z,24.33
2018-12-15T05:48:51.949Z,24.60
2018-12-15T05:51:20.473Z,23.57
2018-12-15T05:53:48.922Z,23.20
2018-12-15T05:56:17.610Z,23.10
2018-12-15T05:58:46.076Z,22.70
2018-12-15T06:01:14.829Z,24.27
2018-12-15T06:03:43.247Z,24.60
2018-12-15T06:06:12.945Z,24.67
2018-12-15T06:08:41.851Z,24.80
2018-12-15T06:11:10.153Z,23.80
2018-12-15T06:13:38.500Z,22.60
2018-12-15T06:16:08.048Z,23.90
2018-12-15T06:18:36.378Z,22.73
2018-12-15T06:21:05.192Z,23.37
2018-12-15T06:23:34.192Z,24.40
2018-12-15T06:26:03.311Z,22.77
2018-12-15T06:28:31.740Z,23.63
2018-12-15T06:31:00.133Z,21.70
2018-12-15T06:33:29.329Z,22.00
2018-12-15T06:35:59.571Z,22.80
2018-12-15T06:38:28.311Z,23.60
2018-12-15T06:40:56.851Z,23.17
2018-12-15T06:43:28.695Z,23.30
2018-12-15T06:45:58.152Z,22.67
2018-12-15T06:48:27.067Z,21.87
2018-12-15T06:50:56.078Z,22.00
2018-12-15T06:53:24.418Z,22.20
2018-12-15T06:55:55.664Z,22.77
2018-12-15T06:58:24.488Z,22.37
2018-12-15T07:00:52.851Z,23.27
2018-12-15T07:03:23.131Z,23.57
2018-12-15T07:05:52.867Z,21.43
2018-12-15T07:08:21.358Z,21.80
2018-12-15T07:10:49.916Z,21.10
2018-12-15T07:13:18.497Z,24.00
2018-12-15T07:15:47.360Z,22.30
2018-12-15T07:18:15.813Z,23.87
2018-12-15T07:20:57.375Z,22.97
2018-12-15T07:23:26.625Z,21.57
2018-12-15T07:25:55.893Z,22.10
2018-12-15T07:28:24.361Z,21.30
2018-12-15T07:30:53.058Z,22.20
2018-12-15T07:33:22.762Z,22.13
2018-12-15T07:35:52.070Z,21.30
2018-12-15T07:38:20.402Z,19.90
2018-12-15T07:40:48.742Z,19.60
2018-12-15T07:43:18.234Z,19.93
2018-12-15T07:45:47.020Z,19.57
2018-12-15T07:48:15.665Z,19.77
2018-12-15T07:50:44.654Z,20.60
2018-12-15T07:53:13.694Z,21.60
2018-12-15T07:55:42.513Z,20.00
2018-12-15T07:58:11.359Z,19.10
2018-12-15T08:00:40.141Z,20.23
2018-12-15T08:03:09.015Z,21.17
2018-12-15T08:05:38.443Z,21.67
2018-12-15T08:08:06.858Z,19.80
2018-12-15T08:10:41.510Z,19.97
2018-12-15T08:13:14.631Z,21.80
2018-12-15T08:18:19.161Z,21.27
2018-12-15T08:20:47.598Z,19.07
2018-12-15T08:23:15.894Z,21.80
2018-12-15T08:25:44.139Z,21.13
2018-12-15T08:28:12.498Z,20.67
2018-12-15T08:30:41.079Z,19.37
2018-12-15T08:33:09.708Z,20.30
2018-12-15T08:35:38.737Z,19.53
2018-12-15T08:38:07.042Z,20.20
2018-12-15T08:40:35.520Z,20.93
2018-12-15T08:43:04.465Z,19.20
2018-12-15T08:45:32.859Z,20.93
2018-12-15T08:48:01.368Z,18.93
2018-12-15T08:50:30.469Z,21.10
2018-12-15T08:52:59.807Z,21.13
2018-12-15T08:55:29.018Z,20.47
2018-12-15T08:57:58.890Z,20.20
2018-12-15T09:00:27.295Z,19.60
2018-12-15T09:02:56.533Z,20.00
2018-12-15T09:05:25.841Z,19.70
2018-12-15T09:07:54.237Z,20.43
2018-12-15T09:10:22.872Z,20.40
2018-12-15T09:12:54.475Z,20.30
2018-12-15T09:15:25.351Z,21.80
2018-12-15T09:17:58.415Z,19.20
2018-12-15T09:20:27.371Z,18.70
2018-12-15T09:22:56.461Z,20.80
2018-12-15T09:25:24.739Z,19.97
2018-12-15T09:27:53.136Z,20.20
2018-12-15T09:30:21.881Z,19.40
2018-12-15T09:32:51.259Z,18.80
2018-12-15T09:35:19.748Z,18.30
2018-12-15T09:37:50.845Z,18.30
2018-12-15T09:40:19.198Z,20.10
2018-12-15T09:42:47.660Z,19.00
2018-12-15T09:45:15.939Z,19.00
2018-12-15T09:47:44.585Z,17.40
2018-12-15T09:50:13.248Z,18.03
2018-12-15T09:52:41.591Z,16.53
2018-12-15T09:55:11.001Z,15.80
2018-12-15T10:00:18.095Z,16.47
2018-12-15T10:02:47.024Z,16.87
2018-12-15T10:05:15.392Z,15.47
2018-12-15T10:07:43.839Z,16.80
2018-12-15T10:10:12.942Z,18.00
2018-12-15T10:12:41.362Z,17.50
2018-12-15T10:15:09.705Z,16.73
2018-12-15T10:17:38.190Z,15.40
2018-12-15T10:20:13.118Z,16.63
2018-12-15T10:22:41.713Z,17.00
2018-12-15T10:25:10.244Z,15.67
2018-12-15T10:27:38.737Z,17.20
2018-12-15T10:30:13.586Z,15.90
2018-12-15T10:32:50.692Z,15.80
2018-12-15T10:35:19.868Z,16.60
2018-12-15T10:37:48.676Z,16.90
2018-12-15T10:40:17.308Z,15.00
2018-12-15T10:42:45.797Z,16.53
2018-12-15T10:45:14.283Z,17.57
2018-12-15T10:47:43.033Z,14.93
2018-12-15T10:50:12.285Z,15.97
2018-12-15T10:52:40.758Z,15.57
2018-12-15T10:55:09.745Z,15.60
2018-12-15T10:57:38.231Z,15.80
2018-12-15T11:00:16.300Z,16.37
2018-12-15T11:02:44.688Z,15.73
2018-12-15T11:05:13.061Z,15.07
2018-12-15T11:07:41.442Z,13.10
2018-12-15T11:10:10.916Z,15.23
2018-12-15T11:12:39.393Z,16.90
2018-12-15T11:15:08.642Z,15.40
2018-12-15T11:17:37.196Z,17.23
2018-12-15T11:20:06.742Z,15.60
2018-12-15T11:25:13.765Z,15.23
2018-12-15T11:27:42.038Z,15.60
2018-12-15T11:30:10.519Z,15.30
2018-12-15T11:32:39.018Z,15.30
2018-12-15T11:35:07.362Z,16.03
2018-12-15T11:37:35.672Z,17.37
2018-12-15T11:40:04.736Z,16.00
2018-12-15T11:42:33.011Z,14.80
2018-12-15T11:45:01.288Z,15.73
2018-12-15T11:47:29.701Z,15.60
2018-12-15T11:49:58.083Z,15.70
2018-12-15T11:52:26.559Z,14.80
2018-12-15T11:54:54.874Z,14.40
2018-12-15T11:57:23.238Z,15.30
2018-12-15T11:59:51.833Z,15.47
2018-12-15T12:02:20.084Z,16.50
2018-12-15T12:04:48.414Z,16.00
2018-12-15T12:07:16.713Z,15.30
2018-12-15T12:09:44.935Z,15.77
2018-12-15T12:12:13.295Z,15.07
2018-12-15T12:14:41.556Z,14.93
2018-12-15T12:17:09.894Z,16.50
2018-12-15T12:19:39.450Z,15.17
2018-12-15T12:22:07.798Z,14.33
2018-12-15T12:24:36.210Z,16.43
2018-12-15T12:27:04.490Z,14.80
2018-12-15T12:29:32.911Z,14.90
2018-12-15T12:32:01.111Z,14.97
2018-12-15T12:34:29.378Z,16.97
2018-12-15T12:36:57.858Z,15.17
2018-12-15T12:39:26.106Z,15.33
2018-12-15T12:41:54.322Z,17.20
2018-12-15T12:44:22.667Z,15.23
2018-12-15T12:46:51.313Z,15.73
2018-12-15T12:49:19.622Z,14.70
2018-12-15T12:51:48.092Z,16.33
2018-12-15T12:54:16.342Z,16.60
2018-12-15T12:56:44.628Z,15.40
2018-12-15T12:59:13.099Z,14.77
2018-12-15T13:01:41.490Z,14.83
2018-12-15T13:04:09.868Z,14.73
2018-12-15T13:06:38.852Z,16.40
2018-12-15T13:09:07.559Z,14.83
2018-12-15T13:11:35.840Z,16.27
2018-12-15T13:14:04.370Z,16.43
2018-12-15T13:16:32.766Z,15.10
2018-12-15T13:19:01.220Z,14.80
2018-12-15T13:21:29.627Z,15.97
2018-12-15T13:23:57.946Z,15.90
2018-12-15T13:26:26.285Z,15.80
2018-12-15T13:28:54.713Z,16.00
2018-12-15T13:31:23.023Z,15.53
2018-12-15T13:33:52.158Z,17.40
2018-12-15T13:36:20.738Z,16.23
2018-12-15T13:38:49.018Z,15.73
2018-12-15T13:41:17.307Z,16.47
2018-12-15T13:43:45.737Z,18.30
2018-12-15T13:46:14.069Z,16.77
2018-12-15T13:48:42.383Z,17.13
2018-12-15T13:51:10.764Z,16.57
2018-12-15T13:53:39.490Z,17.13
2018-12-15T13:56:07.723Z,17.30
2018-12-15T13:58:36.131Z,16.37
2018-12-15T14:01:05.321Z,16.63
2018-12-15T14:03:46.175Z,16.20
2018-12-15T14:06:14.473Z,17.63
2018-12-15T14:08:42.880Z,16.83
2018-12-15T14:11:11.302Z,16.27
2018-12-15T14:13:39.952Z,17.60
2018-12-15T14:16:08.203Z,18.00
2018-12-15T14:18:36.864Z,17.80
2018-12-15T14:21:05.210Z,17.23
2018-12-15T14:23:33.485Z,17.97
2018-12-15T14:26:04.645Z,17.13
2018-12-15T14:28:33.794Z,18.60
2018-12-15T14:31:02.795Z,19.27
2018-12-15T14:33:31.300Z,18.23
2018-12-15T14:35:59.751Z,17.90
2018-12-15T14:38:28.108Z,16.80
2018-12-15T14:40:56.433Z,18.43
2018-12-15T14:43:24.995Z,19.00
2018-12-15T14:45:53.331Z,17.30
2018-12-15T14:48:21.734Z,17.10
2018-12-15T14:50:50.356Z,18.10
2018-12-15T14:53:18.834Z,17.33
2018-12-15T14:55:47.306Z,18.43
2018-12-15T14:58:15.705Z,17.37
2018-12-15T15:00:44.070Z,18.07
2018-12-15T15:03:12.644Z,17.90
2018-12-15T15:05:40.974Z,17.40
2018-12-15T15:08:09.332Z,17.53
2018-12-15T15:10:37.717Z,18.70
2018-12-15T15:13:06.022Z,18.00
2018-12-15T15:15:34.551Z,18.47
2018-12-15T15:18:03.004Z,18.53
2018-12-15T15:20:31.315Z,19.33
2018-12-15T15:22:59.525Z,18.10
2018-12-15T15:25:27.946Z,19.00
2018-12-15T15:27:56.305Z,19.23
2018-12-15T15:30:24.514Z,18.23
2018-12-15T15:32:52.866Z,17.00
2018-12-15T15:35:21.109Z,17.57
2018-12-15T15:37:49.556Z,18.17
2018-12-15T15:40:17.973Z,18.40
2018-12-15T15:42:46.433Z,18.73
2018-12-15T15:45:14.896Z,17.70
2018-12-15T15:47:43.233Z,18.30
2018-12-15T15:50:11.781Z,19.10
2018-12-15T15:52:40.163Z,17.60
2018-12-15T15:55:08.772Z,19.20
2018-12-15T15:57:37.311Z,19.40
2018-12-15T16:00:08.071Z,17.80
2018-12-15T16:02:36.410Z,18.50
2018-12-15T16:05:05.617Z,19.03
2018-12-15T16:07:34.634Z,18.43
2018-12-15T16:10:03.826Z,17.70
2018-12-15T16:12:32.417Z,18.23
2018-12-15T16:15:00.822Z,18.17
2018-12-15T16:17:29.305Z,17.10
2018-12-15T16:19:58.379Z,20.03
2018-12-15T16:22:27.623Z,18.43
2018-12-15T16:24:56.067Z,19.80
2018-12-15T16:27:24.683Z,18.43
2018-12-15T16:29:53.300Z,18.50
2018-12-15T16:32:21.960Z,18.20
2018-12-15T16:34:50.350Z,19.10
2018-12-15T16:37:18.885Z,19.63
2018-12-15T16:39:47.570Z,18.60
2018-12-15T16:42:16.046Z,20.10
2018-12-15T16:44:45.190Z,19.47
2018-12-15T16:47:14.266Z,18.13
2018-12-15T16:49:43.502Z,19.90
2018-12-15T16:52:13.477Z,19.50
2018-12-15T16:54:42.282Z,20.10
2018-12-15T16:57:11.195Z,19.13
2018-12-15T16:59:42.125Z,20.10
2018-12-15T17:02:10.576Z,18.93
2018-12-15T17:04:39.047Z,18.97
2018-12-15T17:07:08.040Z,20.47
2018-12-15T17:09:39.390Z,19.80
2018-12-15T17:12:08.092Z,19.87
2018-12-15T17:14:38.439Z,19.23
2018-12-15T17:17:06.880Z,20.47
2018-12-15T17:19:38.537Z,19.40
2018-12-15T17:22:08.188Z,19.77
2018-12-15T17:24:37.129Z,19.40
2018-12-15T17:27:07.077Z,18.73
2018-12-15T17:29:36.441Z,21.50
2018-12-15T17:32:06.797Z,18.93
2018-12-15T17:34:35.054Z,19.90
2018-12-15T17:37:04.089Z,21.10
2018-12-15T17:39:33.511Z,19.83
2018-12-15T17:42:03.619Z,21.60
2018-12-15T17:44:36.201Z,20.40
2018-12-15T17:47:05.159Z,20.73
2018-12-15T17:49:33.615Z,20.83
2018-12-15T17:52:02.519Z,21.33
2018-12-15T17:54:31.773Z,22.07
2018-12-15T17:57:01.432Z,18.60
2018-12-15T17:59:33.249Z,19.70
2018-12-15T18:02:02.044Z,19.80
2018-12-15T18:04:30.481Z,21.27
2018-12-15T18:06:59.132Z,20.20
2018-12-15T18:09:27.622Z,21.07
2018-12-15T18:11:55.993Z,19.70
2018-12-15T18:14:24.631Z,18.97
2018-12-15T18:16:53.529Z,19.90
2018-12-15T18:19:22.369Z,18.93
2018-12-15T18:21:50.989Z,18.20
2018-12-15T18:24:19.328Z,20.10
2018-12-15T18:26:47.572Z,20.33
2018-12-15T18:32:16.102Z,19.83
2018-12-15T18:34:44.629Z,19.10
2018-12-15T18:37:12.962Z,18.20
2018-12-15T18:39:41.349Z,19.83
2018-12-15T18:42:11.000Z,19.60
2018-12-15T18:44:39.600Z,20.40
2018-12-15T18:47:07.973Z,18.17
2018-12-15T18:49:36.295Z,19.83
2018-12-15T18:52:04.768Z,19.50
2018-12-15T18:54:34.121Z,17.50
2018-12-15T18:57:02.837Z,18.60
2018-12-15T18:59:31.218Z,17.93
2018-12-15T19:01:59.451Z,19.70
2018-12-15T19:04:27.806Z,18.43
2018-12-15T19:06:56.542Z,19.37
2018-12-15T19:09:25.000Z,18.00
2018-12-15T19:11:53.303Z,18.13
2018-12-15T19:14:21.706Z,18.10
2018-12-15T19:16:50.079Z,17.57
2018-12-15T19:19:18.704Z,17.40
2018-12-15T19:24:25.563Z,17.50
2018-12-15T19:26:53.982Z,18.27
2018-12-15T19:29:22.330Z,19.30
2018-12-15T19:31:50.906Z,18.00
2018-12-15T19:34:19.161Z,17.07
2018-12-15T19:36:47.434Z,18.13
2018-12-15T19:39:15.823Z,17.70
2018-12-15T19:41:44.200Z,18.33
2018-12-15T19:44:12.469Z,18.70
2018-12-15T19:46:40.787Z,18.90
2018-12-15T19:49:09.026Z,18.73
2018-12-15T19:51:37.217Z,18.53
2018-12-15T19:54:05.505Z,17.10
2018-12-15T19:56:34.879Z,18.40
2018-12-15T19:59:03.359Z,17.37
2018-12-15T20:01:31.776Z,18.93
2018-12-15T20:04:00.216Z,17.40
2018-12-15T20:06:28.623Z,19.20
2018-12-15T20:08:56.901Z,18.53
2018-12-15T20:11:25.593Z,18.90
2018-12-15T20:13:53.925Z,17.13
2018-12-15T20:16:22.351Z,18.60
2018-12-15T20:18:51.106Z,19.37
2018-12-15T20:21:19.354Z,20.37
2018-12-15T20:23:47.625Z,19.30
2018-12-15T20:26:16.030Z,18.80
2018-12-15T20:28:44.294Z,20.43
2018-12-15T20:31:12.561Z,19.30
2018-12-15T20:33:40.947Z,19.23
2018-12-15T20:36:09.231Z,19.90
2018-12-15T20:38:37.554Z,19.20
2018-12-15T20:43:46.611Z,19.07
2018-12-15T20:46:14.892Z,18.50
2018-12-15T20:48:43.221Z,19.00
2018-12-15T20:51:11.462Z,19.70
2018-12-15T20:53:39.971Z,20.13
2018-12-15T20:56:08.231Z,19.60
2018-12-15T20:58:36.447Z,18.67
2018-12-15T21:01:05.909Z,20.70
2018-12-15T21:03:34.282Z,20.40
2018-12-15T21:06:02.542Z,19.93
2018-12-15T21:08:30.950Z,18.97
2018-12-15T21:10:59.252Z,18.80
2018-12-15T21:13:27.569Z,19.00
2018-12-15T21:15:58.099Z,20.20
2018-12-15T21:18:26.855Z,22.90
2018-12-15T21:20:55.124Z,19.77
2018-12-15T21:23:23.488Z,20.60
2018-12-15T21:25:51.762Z,20.07
2018-12-15T21:28:20.114Z,20.77
2018-12-15T21:30:55.240Z,20.40
2018-12-15T21:33:24.493Z,22.00
2018-12-15T21:35:52.822Z,20.20
2018-12-15T21:38:21.575Z,20.37
2018-12-15T21:40:49.902Z,20.03
2018-12-15T21:43:18.218Z,20.63
2018-12-15T21:45:46.557Z,21.20
2018-12-15T21:48:14.999Z,19.90
2018-12-15T21:50:43.605Z,21.50
2018-12-15T21:53:11.841Z,20.43
2018-12-15T21:55:40.188Z,21.67
2018-12-15T21:58:08.502Z,20.67
2018-12-15T22:00:36.833Z,20.23
2018-12-15T22:03:05.386Z,18.60
2018-12-15T22:08:12.965Z,19.53
2018-12-15T22:10:41.315Z,20.20
2018-12-15T22:13:09.632Z,20.87
2018-12-15T22:15:38.046Z,19.90
2018-12-15T22:18:08.061Z,20.80
2018-12-15T22:20:36.867Z,19.20
2018-12-15T22:23:05.805Z,18.80
2018-12-15T22:25:34.195Z,20.67
2018-12-15T22:28:02.532Z,22.57
2018-12-15T22:30:30.952Z,20.37
2018-12-15T22:32:59.379Z,22.30
2018-12-15T22:35:27.826Z,22.53
2018-12-15T22:37:56.205Z,23.63
2018-12-15T22:40:24.677Z,24.13
2018-12-15T22:42:53.240Z,22.73
2018-12-15T22:45:21.790Z,24.20
2018-12-15T22:47:50.212Z,21.37
2018-12-15T22:50:18.658Z,23.90
2018-12-15T22:52:46.997Z,24.60
2018-12-15T22:55:15.473Z,24.63
2018-12-15T22:57:43.849Z,25.73
2018-12-15T23:00:13.319Z,24.70
2018-12-15T23:02:41.901Z,25.47
2018-12-15T23:05:10.282Z,27.10
2018-12-15T23:07:38.807Z,26.80
2018-12-15T23:10:08.275Z,26.77
2018-12-15T23:12:36.638Z,28.53
2018-12-15T23:15:06.766Z,28.67
2018-12-15T23:17:35.177Z,27.33
2018-12-15T23:20:06.663Z,29.80
2018-12-15T23:22:35.099Z,26.73
2018-12-15T23:25:03.697Z,28.97
2018-12-15T23:27:32.143Z,29.23
2018-12-15T23:30:00.624Z,29.63
2018-12-15T23:32:29.036Z,30.57
2018-12-15T23:34:57.513Z,30.33
2018-12-15T23:37:25.833Z,28.77
2018-12-15T23:39:54.321Z,30.27
2018-12-15T23:42:22.624Z,30.23
2018-12-15T23:44:51.092Z,29.53
2018-12-15T23:47:19.590Z,31.97
2018-12-15T23:49:48.025Z,30.20
2018-12-15T23:52:23.104Z,30.50
2018-12-15T23:54:47.154Z,29.67
2018-12-15T23:57:15.523Z,29.83
2018-12-15T23:59:43.845Z,30.67
